createdAt,value
2023-04-15T00:00:46.594Z,139.08
2023-04-15T00:01:46.695Z,137.32
2023-04-15T00:02:46.742Z,136.86
2023-04-15T00:03:46.900Z,138.44
2023-04-15T00:04:46.813Z,137.80
2023-04-15T00:05:46.711Z,138.07
2023-04-15T00:06:46.723Z,138.13
2023-04-15T00:07:46.748Z,138.26
2023-04-15T00:08:46.774Z,137.80
2023-04-15T00:09:46.783Z,135.80
2023-04-15T00:10:46.876Z,137.03
2023-04-15T00:11:46.813Z,138.84
2023-04-15T00:12:46.829Z,135.70
2023-04-15T00:13:46.844Z,136.87
2023-04-15T00:14:46.856Z,137.56
2023-04-15T00:15:46.892Z,138.42
2023-04-15T00:16:46.925Z,136.43
2023-04-15T00:17:47.048Z,136.82
2023-04-15T00:18:47.151Z,137.42
2023-04-15T00:19:46.953Z,135.98
2023-04-15T00:20:46.976Z,135.59
2023-04-15T00:21:46.999Z,137.01
2023-04-15T00:22:47.015Z,135.30
2023-04-15T00:23:47.054Z,137.58
2023-04-15T00:24:47.084Z,139.40
2023-04-15T00:25:47.098Z,135.92
2023-04-15T00:26:47.125Z,137.44
2023-04-15T00:27:47.144Z,135.95
2023-04-15T00:28:47.173Z,136.25
2023-04-15T00:29:47.201Z,135.68
2023-04-15T00:30:47.263Z,136.48
2023-04-15T00:31:47.234Z,135.99
2023-04-15T00:32:47.315Z,135.36
2023-04-15T00:33:47.282Z,137.40
2023-04-15T00:34:47.300Z,134.20
2023-04-15T00:35:47.345Z,135.97
2023-04-15T00:36:47.355Z,135.19
2023-04-15T00:37:47.395Z,136.29
2023-04-15T00:38:47.411Z,134.30
2023-04-15T00:39:47.419Z,135.52
2023-04-15T00:40:47.449Z,135.11
2023-04-15T00:41:47.461Z,136.57
2023-04-15T00:42:47.472Z,135.06
2023-04-15T00:43:47.495Z,134.98
2023-04-15T00:44:47.510Z,134.92
2023-04-15T00:45:47.586Z,136.31
2023-04-15T00:46:47.535Z,134.24
2023-04-15T00:47:47.574Z,135.09
2023-04-15T00:48:47.556Z,133.59
2023-04-15T00:49:47.581Z,135.64
2023-04-15T00:50:47.616Z,134.81
2023-04-15T00:51:47.630Z,136.58
2023-04-15T00:52:47.650Z,133.57
2023-04-15T00:53:47.684Z,134.14
2023-04-15T00:54:47.699Z,133.54
2023-04-15T00:55:47.726Z,135.42
2023-04-15T00:56:47.745Z,135.62
2023-04-15T00:57:47.774Z,132.94
2023-04-15T00:58:47.789Z,134.14
2023-04-15T00:59:47.818Z,132.78
2023-04-15T01:00:47.822Z,132.54
2023-04-15T01:01:47.981Z,133.65
2023-04-15T01:02:47.952Z,132.96
2023-04-15T01:03:48.029Z,131.22
2023-04-15T01:04:47.911Z,132.52
2023-04-15T01:05:47.942Z,131.01
2023-04-15T01:06:47.958Z,131.86
2023-04-15T01:07:47.978Z,132.54
2023-04-15T01:08:48.001Z,133.31
2023-04-15T01:09:48.046Z,132.16
2023-04-15T01:10:48.049Z,132.61
2023-04-15T01:11:48.069Z,131.09
2023-04-15T01:12:48.104Z,132.14
2023-04-15T01:13:48.114Z,130.88
2023-04-15T01:14:48.140Z,130.84
2023-04-15T01:15:48.174Z,131.00
2023-04-15T01:16:48.189Z,130.32
2023-04-15T01:17:48.240Z,130.61
2023-04-15T01:18:48.244Z,129.81
2023-04-15T01:19:48.263Z,130.77
2023-04-15T01:20:48.278Z,129.89
2023-04-15T01:21:48.291Z,129.36
2023-04-15T01:22:48.319Z,131.22
2023-04-15T01:23:48.330Z,128.87
2023-04-15T01:24:48.361Z,131.73
2023-04-15T01:25:48.363Z,129.07
2023-04-15T01:26:48.384Z,128.91
2023-04-15T01:27:48.408Z,129.64
2023-04-15T01:28:48.429Z,130.50
2023-04-15T01:29:48.457Z,130.48
2023-04-15T01:30:48.476Z,130.14
2023-04-15T01:31:48.511Z,129.95
2023-04-15T01:32:48.541Z,127.62
2023-04-15T01:33:48.538Z,128.25
2023-04-15T01:34:48.525Z,127.41
2023-04-15T01:35:48.554Z,126.03
2023-04-15T01:36:48.569Z,127.97
2023-04-15T01:37:48.596Z,128.72
2023-04-15T01:38:48.608Z,126.90
2023-04-15T01:39:48.616Z,127.07
2023-04-15T01:40:48.626Z,127.92
2023-04-15T01:41:48.656Z,129.31
2023-04-15T01:42:48.740Z,127.13
2023-04-15T01:43:48.695Z,130.29
2023-04-15T01:44:48.771Z,126.86
2023-04-15T01:45:48.732Z,126.15
2023-04-15T01:46:48.764Z,128.45
2023-04-15T01:47:48.819Z,126.92
2023-04-15T01:48:48.782Z,125.97
2023-04-15T01:49:48.827Z,127.33
2023-04-15T01:50:48.818Z,126.79
2023-04-15T01:51:48.840Z,126.46
2023-04-15T01:52:48.894Z,126.02
2023-04-15T01:53:48.889Z,125.85
2023-04-15T01:54:48.907Z,125.49
2023-04-15T01:55:48.910Z,127.20
2023-04-15T01:56:48.928Z,125.30
2023-04-15T01:57:48.950Z,126.09
2023-04-15T01:58:48.975Z,125.68
2023-04-15T01:59:48.996Z,124.46
2023-04-15T02:00:49.037Z,125.68
2023-04-15T02:01:49.061Z,125.26
2023-04-15T02:02:49.096Z,126.70
2023-04-15T02:03:49.243Z,126.99
2023-04-15T02:04:49.094Z,124.71
2023-04-15T02:05:49.113Z,124.88
2023-04-15T02:06:49.147Z,124.97
2023-04-15T02:07:49.155Z,124.72
2023-04-15T02:08:49.171Z,124.31
2023-04-15T02:09:49.191Z,125.64
2023-04-15T02:10:49.212Z,125.62
2023-04-15T02:11:49.221Z,124.16
2023-04-15T02:12:49.261Z,124.32
2023-04-15T02:13:49.280Z,124.50
2023-04-15T02:14:49.272Z,123.33
2023-04-15T02:15:49.290Z,126.39
2023-04-15T02:16:49.426Z,124.30
2023-04-15T02:17:49.320Z,123.42
2023-04-15T02:18:49.314Z,123.43
2023-04-15T02:19:49.332Z,126.31
2023-04-15T02:20:49.325Z,124.60
2023-04-15T02:21:49.327Z,122.45
2023-04-15T02:22:49.327Z,126.30
2023-04-15T02:23:49.329Z,122.60
2023-04-15T02:24:49.329Z,123.94
2023-04-15T02:25:53.936Z,124.08
2023-04-15T02:26:50.289Z,124.23
2023-04-15T02:27:49.257Z,123.80
2023-04-15T02:28:49.187Z,124.45
2023-04-15T02:29:49.148Z,123.50
2023-04-15T02:30:49.092Z,124.98
2023-04-15T02:31:49.076Z,123.71
2023-04-15T02:32:49.036Z,124.00
2023-04-15T02:33:48.952Z,122.25
2023-04-15T02:34:48.906Z,123.55
2023-04-15T02:35:48.903Z,120.81
2023-04-15T02:36:48.975Z,120.91
2023-04-15T02:37:48.874Z,122.31
2023-04-15T02:38:48.857Z,121.96
2023-04-15T02:39:48.895Z,121.05
2023-04-15T02:40:48.822Z,120.21
2023-04-15T02:41:48.816Z,121.34
2023-04-15T02:42:48.826Z,119.83
2023-04-15T02:43:48.814Z,120.91
2023-04-15T02:44:48.820Z,122.01
2023-04-15T02:45:48.921Z,122.80
2023-04-15T02:46:48.869Z,120.34
2023-04-15T02:47:48.926Z,120.30
2023-04-15T02:48:48.874Z,120.06
2023-04-15T02:49:48.896Z,121.60
2023-04-15T02:50:48.918Z,118.86
2023-04-15T02:51:48.925Z,120.77
2023-04-15T02:52:48.966Z,120.77
2023-04-15T02:53:49.016Z,119.74
2023-04-15T02:54:49.024Z,119.77
2023-04-15T02:55:49.031Z,118.74
2023-04-15T02:56:49.043Z,120.80
2023-04-15T02:57:49.066Z,119.44
2023-04-15T02:58:49.083Z,119.47
2023-04-15T02:59:49.101Z,119.66
2023-04-15T03:00:49.109Z,118.23
2023-04-15T03:01:49.195Z,118.88
2023-04-15T03:02:49.364Z,117.74
2023-04-15T03:03:49.199Z,116.54
2023-04-15T03:04:49.139Z,119.05
2023-04-15T03:05:49.159Z,117.69
2023-04-15T03:06:49.174Z,117.13
2023-04-15T03:07:49.189Z,116.65
2023-04-15T03:08:49.210Z,117.23
2023-04-15T03:09:49.233Z,117.25
2023-04-15T03:10:49.241Z,116.57
2023-04-15T03:11:49.270Z,116.59
2023-04-15T03:12:49.291Z,116.24
2023-04-15T03:13:49.307Z,115.60
2023-04-15T03:14:49.332Z,117.44
2023-04-15T03:15:49.361Z,117.15
2023-04-15T03:16:49.349Z,115.80
2023-04-15T03:17:49.460Z,116.63
2023-04-15T03:18:49.400Z,115.08
2023-04-15T03:19:49.368Z,117.22
2023-04-15T03:20:49.367Z,114.05
2023-04-15T03:21:49.389Z,114.93
2023-04-15T03:22:49.392Z,115.77
2023-04-15T03:23:49.429Z,116.15
2023-04-15T03:24:49.429Z,114.08
2023-04-15T03:25:49.430Z,113.39
2023-04-15T03:26:49.442Z,113.45
2023-04-15T03:27:49.444Z,115.34
2023-04-15T03:28:49.470Z,114.24
2023-04-15T03:29:49.493Z,114.32
2023-04-15T03:30:49.600Z,112.05
2023-04-15T03:31:49.557Z,113.55
2023-04-15T03:32:49.563Z,115.42
2023-04-15T03:33:49.541Z,115.07
2023-04-15T03:34:49.574Z,113.84
2023-04-15T03:35:49.568Z,114.17
2023-04-15T03:36:49.579Z,114.08
2023-04-15T03:37:49.598Z,114.77
2023-04-15T03:38:49.614Z,114.42
2023-04-15T03:39:49.622Z,113.27
2023-04-15T03:40:49.650Z,113.27
2023-04-15T03:41:49.664Z,113.06
2023-04-15T03:42:49.677Z,114.00
2023-04-15T03:43:49.921Z,113.15
2023-04-15T03:44:49.721Z,113.57
2023-04-15T03:45:49.743Z,113.93
2023-04-15T03:46:49.925Z,110.87
2023-04-15T03:47:49.907Z,112.96
2023-04-15T03:48:49.788Z,112.58
2023-04-15T03:49:49.800Z,111.64
2023-04-15T03:50:49.824Z,111.24
2023-04-15T03:51:49.800Z,111.04
2023-04-15T03:52:51.251Z,111.60
2023-04-15T03:53:49.858Z,112.43
2023-04-15T03:54:49.870Z,113.39
2023-04-15T03:55:49.879Z,111.45
2023-04-15T03:56:49.892Z,111.35
2023-04-15T03:57:49.903Z,110.02
2023-04-15T03:58:49.934Z,111.68
2023-04-15T03:59:49.950Z,111.50
2023-04-15T04:00:49.967Z,111.81
2023-04-15T04:01:50.030Z,112.68
2023-04-15T04:02:50.153Z,111.98
2023-04-15T04:03:50.189Z,109.70
2023-04-15T04:04:50.038Z,110.40
2023-04-15T04:05:50.003Z,109.73
2023-04-15T04:06:50.028Z,107.35
2023-04-15T04:07:50.046Z,112.12
2023-04-15T04:08:50.065Z,110.36
2023-04-15T04:09:50.109Z,110.12
2023-04-15T04:10:50.113Z,110.26
2023-04-15T04:11:50.155Z,107.39
2023-04-15T04:12:50.167Z,109.12
2023-04-15T04:13:50.181Z,109.60
2023-04-15T04:14:50.203Z,109.07
2023-04-15T04:15:50.242Z,108.23
2023-04-15T04:16:50.268Z,109.92
2023-04-15T04:17:50.260Z,107.95
2023-04-15T04:18:50.278Z,108.23
2023-04-15T04:19:50.309Z,107.55
2023-04-15T04:20:50.315Z,109.80
2023-04-15T04:21:50.329Z,106.74
2023-04-15T04:22:50.420Z,106.96
2023-04-15T04:23:50.373Z,106.46
2023-04-15T04:24:50.401Z,107.41
2023-04-15T04:25:50.420Z,109.29
2023-04-15T04:26:50.459Z,107.09
2023-04-15T04:27:50.476Z,107.91
2023-04-15T04:28:50.501Z,108.59
2023-04-15T04:29:50.540Z,108.28
2023-04-15T04:30:50.561Z,106.05
2023-04-15T04:31:50.622Z,107.25
2023-04-15T04:32:50.668Z,108.57
2023-04-15T04:33:50.614Z,108.51
2023-04-15T04:34:50.637Z,106.88
2023-04-15T04:35:50.650Z,106.85
2023-04-15T04:36:50.686Z,105.90
2023-04-15T04:37:50.716Z,105.71
2023-04-15T04:38:50.734Z,107.97
2023-04-15T04:39:50.767Z,109.04
2023-04-15T04:40:50.810Z,107.52
2023-04-15T04:41:50.812Z,104.67
2023-04-15T04:42:50.831Z,104.99
2023-04-15T04:43:50.859Z,108.08
2023-04-15T04:44:50.876Z,104.53
2023-04-15T04:45:50.923Z,106.34
2023-04-15T04:46:50.927Z,106.93
2023-04-15T04:47:51.001Z,106.71
2023-04-15T04:48:50.976Z,105.04
2023-04-15T04:49:51.014Z,105.18
2023-04-15T04:50:51.078Z,106.71
2023-04-15T04:51:51.085Z,105.11
2023-04-15T04:52:51.052Z,108.67
2023-04-15T04:53:51.080Z,108.92
2023-04-15T04:54:51.108Z,106.88
2023-04-15T04:55:51.120Z,107.25
2023-04-15T04:56:51.138Z,105.20
2023-04-15T04:57:51.162Z,106.16
2023-04-15T04:58:51.188Z,107.19
2023-04-15T04:59:51.218Z,105.24
2023-04-15T05:00:51.240Z,104.87
2023-04-15T05:01:51.302Z,105.70
2023-04-15T05:02:51.391Z,104.78
2023-04-15T05:03:51.414Z,105.07
2023-04-15T05:04:51.320Z,103.07
2023-04-15T05:05:51.346Z,104.11
2023-04-15T05:06:51.378Z,104.86
2023-04-15T05:07:51.403Z,104.98
2023-04-15T05:08:51.432Z,103.15
2023-04-15T05:09:51.468Z,103.51
2023-04-15T05:10:51.478Z,104.82
2023-04-15T05:11:51.504Z,102.87
2023-04-15T05:12:51.532Z,104.05
2023-04-15T05:13:51.566Z,103.85
2023-04-15T05:14:51.582Z,105.28
2023-04-15T05:15:51.642Z,104.37
2023-04-15T05:16:51.633Z,104.23
2023-04-15T05:17:51.754Z,106.48
2023-04-15T05:18:51.684Z,103.39
2023-04-15T05:19:51.730Z,104.68
2023-04-15T05:20:51.744Z,104.30
2023-04-15T05:21:51.767Z,102.68
2023-04-15T05:22:51.794Z,104.03
2023-04-15T05:23:51.802Z,105.21
2023-04-15T05:24:51.839Z,102.80
2023-04-15T05:25:51.838Z,101.51
2023-04-15T05:26:51.880Z,102.20
2023-04-15T05:27:51.895Z,102.46
2023-04-15T05:28:51.916Z,102.76
2023-04-15T05:29:51.951Z,102.89
2023-04-15T05:30:51.976Z,102.04
2023-04-15T05:31:51.999Z,103.51
2023-04-15T05:32:52.035Z,104.28
2023-04-15T05:33:52.044Z,104.93
2023-04-15T05:34:52.058Z,104.20
2023-04-15T05:35:52.082Z,104.46
2023-04-15T05:36:52.105Z,103.60
2023-04-15T05:37:52.129Z,104.82
2023-04-15T05:38:52.137Z,102.87
2023-04-15T05:39:52.171Z,103.35
2023-04-15T05:40:52.169Z,104.35
2023-04-15T05:41:52.204Z,102.57
2023-04-15T05:42:52.214Z,103.81
2023-04-15T05:43:52.219Z,100.93
2023-04-15T05:44:52.236Z,100.98
2023-04-15T05:45:52.306Z,101.06
2023-04-15T05:46:52.278Z,102.91
2023-04-15T05:47:52.336Z,99.72
2023-04-15T05:48:53.815Z,102.39
2023-04-15T05:49:52.322Z,102.15
2023-04-15T05:50:52.397Z,99.56
2023-04-15T05:51:52.352Z,100.13
2023-04-15T05:52:52.358Z,99.95
2023-04-15T05:53:52.378Z,101.57
2023-04-15T05:54:52.391Z,99.50
2023-04-15T05:55:52.398Z,98.53
2023-04-15T05:56:52.433Z,99.06
2023-04-15T05:57:52.440Z,98.79
2023-04-15T05:58:53.804Z,97.68
2023-04-15T05:59:52.469Z,97.04
2023-04-15T06:00:52.486Z,98.58
2023-04-15T06:01:52.541Z,95.98
2023-04-15T06:02:52.579Z,96.33
2023-04-15T06:03:52.584Z,94.47
2023-04-15T06:04:52.602Z,96.98
2023-04-15T06:05:52.576Z,93.36
2023-04-15T06:06:52.596Z,93.44
2023-04-15T06:07:52.602Z,91.73
2023-04-15T06:08:52.636Z,91.70
2023-04-15T06:09:52.659Z,92.51
2023-04-15T06:10:52.688Z,93.63
2023-04-15T06:11:52.707Z,90.87
2023-04-15T06:12:52.732Z,91.84
2023-04-15T06:13:52.746Z,91.75
2023-04-15T06:14:52.774Z,91.32
2023-04-15T06:15:52.774Z,94.32
2023-04-15T06:16:52.785Z,93.76
2023-04-15T06:17:52.828Z,93.24
2023-04-15T06:18:52.829Z,95.11
2023-04-15T06:19:52.853Z,92.60
2023-04-15T06:20:52.871Z,93.49
2023-04-15T06:21:52.896Z,95.50
2023-04-15T06:22:52.921Z,92.90
2023-04-15T06:23:52.941Z,90.86
2023-04-15T06:24:52.977Z,93.99
2023-04-15T06:25:52.971Z,95.90
2023-04-15T06:26:53.009Z,92.83
2023-04-15T06:27:53.020Z,92.69
2023-04-15T06:28:53.020Z,96.56
2023-04-15T06:29:53.043Z,93.15
2023-04-15T06:30:53.044Z,93.74
2023-04-15T06:31:53.251Z,92.51
2023-04-15T06:32:53.104Z,91.96
2023-04-15T06:33:53.070Z,90.87
2023-04-15T06:34:53.058Z,93.55
2023-04-15T06:35:53.067Z,91.17
2023-04-15T06:36:53.077Z,93.90
2023-04-15T06:37:53.084Z,94.06
2023-04-15T06:38:53.089Z,93.51
2023-04-15T06:39:53.079Z,96.32
2023-04-15T06:40:53.065Z,94.97
2023-04-15T06:41:53.081Z,94.50
2023-04-15T06:42:53.095Z,95.44
2023-04-15T06:43:53.118Z,95.86
2023-04-15T06:44:53.084Z,95.47
2023-04-15T06:45:53.087Z,94.91
2023-04-15T06:46:53.092Z,99.02
2023-04-15T06:47:53.159Z,97.41
2023-04-15T06:48:53.112Z,96.99
2023-04-15T06:49:53.107Z,97.86
2023-04-15T06:50:53.119Z,97.59
2023-04-15T06:51:53.123Z,98.18
2023-04-15T06:52:53.125Z,98.10
2023-04-15T06:53:53.136Z,100.10
2023-04-15T06:54:53.157Z,97.12
2023-04-15T06:55:53.146Z,97.97
2023-04-15T06:56:53.118Z,97.05
2023-04-15T06:57:53.085Z,99.23
2023-04-15T06:58:53.067Z,98.64
2023-04-15T06:59:53.077Z,99.86
2023-04-15T07:00:53.113Z,96.59
2023-04-15T07:01:53.113Z,98.34
2023-04-15T07:02:53.105Z,99.01
2023-04-15T07:03:53.170Z,101.61
2023-04-15T07:04:53.079Z,98.59
2023-04-15T07:05:53.078Z,101.38
2023-04-15T07:06:53.092Z,99.11
2023-04-15T07:07:53.124Z,103.11
2023-04-15T07:08:53.091Z,103.23
2023-04-15T07:09:53.110Z,102.59
2023-04-15T07:10:53.116Z,99.14
2023-04-15T07:11:53.118Z,103.13
2023-04-15T07:12:53.112Z,104.64
2023-04-15T07:13:53.109Z,103.42
2023-04-15T07:14:53.123Z,105.08
2023-04-15T07:15:53.122Z,104.84
2023-04-15T07:16:53.190Z,105.07
2023-04-15T07:17:53.180Z,103.68
2023-04-15T07:18:53.158Z,108.72
2023-04-15T07:19:53.160Z,106.98
2023-04-15T07:20:53.171Z,105.89
2023-04-15T07:21:53.185Z,105.74
2023-04-15T07:22:53.243Z,104.22
2023-04-15T07:23:53.239Z,106.35
2023-04-15T07:24:53.266Z,109.47
2023-04-15T07:25:53.293Z,107.54
2023-04-15T07:26:53.336Z,107.15
2023-04-15T07:27:53.327Z,107.94
2023-04-15T07:28:53.328Z,110.93
2023-04-15T07:29:53.359Z,109.29
2023-04-15T07:30:53.404Z,111.95
2023-04-15T07:31:53.400Z,110.10
2023-04-15T07:32:53.538Z,110.52
2023-04-15T07:33:53.446Z,110.74
2023-04-15T07:34:53.469Z,113.66
2023-04-15T07:35:53.478Z,114.18
2023-04-15T07:36:53.492Z,112.61
2023-04-15T07:37:53.513Z,111.01
2023-04-15T07:38:53.538Z,112.41
2023-04-15T07:39:53.572Z,114.71
2023-04-15T07:40:53.592Z,114.11
2023-04-15T07:41:53.619Z,111.11
2023-04-15T07:42:53.642Z,113.75
2023-04-15T07:43:53.677Z,113.87
2023-04-15T07:44:53.704Z,114.94
2023-04-15T07:45:53.775Z,114.93
2023-04-15T07:46:53.776Z,115.04
2023-04-15T07:47:53.838Z,114.00
2023-04-15T07:48:53.821Z,115.19
2023-04-15T07:49:53.850Z,113.88
2023-04-15T07:50:53.874Z,114.86
2023-04-15T07:51:53.916Z,115.19
2023-04-15T07:52:53.940Z,117.98
2023-04-15T07:53:53.949Z,115.18
2023-04-15T07:54:53.974Z,115.05
2023-04-15T07:55:53.991Z,115.21
2023-04-15T07:56:54.007Z,120.10
2023-04-15T07:57:54.038Z,116.04
2023-04-15T07:58:54.056Z,118.97
2023-04-15T07:59:54.074Z,116.28
2023-04-15T08:00:54.101Z,116.21
2023-04-15T08:01:54.172Z,115.87
2023-04-15T08:02:54.495Z,121.11
2023-04-15T08:03:54.293Z,117.97
2023-04-15T08:04:54.265Z,117.01
2023-04-15T08:05:54.228Z,117.89
2023-04-15T08:06:54.275Z,117.39
2023-04-15T08:07:54.289Z,115.46
2023-04-15T08:08:54.351Z,119.01
2023-04-15T08:09:54.341Z,117.90
2023-04-15T08:10:54.376Z,117.84
2023-04-15T08:11:54.450Z,118.42
2023-04-15T08:12:54.399Z,118.57
2023-04-15T08:13:54.425Z,117.76
2023-04-15T08:14:54.456Z,118.88
2023-04-15T08:15:54.517Z,117.38
2023-04-15T08:16:54.499Z,120.25
2023-04-15T08:17:54.536Z,121.26
2023-04-15T08:18:54.538Z,117.53
2023-04-15T08:19:54.561Z,117.56
2023-04-15T08:20:54.701Z,117.85
2023-04-15T08:21:54.698Z,120.94
2023-04-15T08:22:54.700Z,121.54
2023-04-15T08:23:54.692Z,119.29
2023-04-15T08:24:54.727Z,121.04
2023-04-15T08:25:54.746Z,118.20
2023-04-15T08:26:54.815Z,119.24
2023-04-15T08:27:54.761Z,117.27
2023-04-15T08:28:54.872Z,115.46
2023-04-15T08:29:54.882Z,118.49
2023-04-15T08:30:54.834Z,117.81
2023-04-15T08:31:55.008Z,119.65
2023-04-15T08:32:54.950Z,117.47
2023-04-15T08:33:54.924Z,119.09
2023-04-15T08:34:54.943Z,118.76
2023-04-15T08:35:54.950Z,119.78
2023-04-15T08:36:54.979Z,116.27
2023-04-15T08:37:54.996Z,118.31
2023-04-15T08:38:54.998Z,117.68
2023-04-15T08:39:55.019Z,118.10
2023-04-15T08:40:55.041Z,116.64
2023-04-15T08:41:55.070Z,119.00
2023-04-15T08:42:55.076Z,119.96
2023-04-15T08:43:55.109Z,118.18
2023-04-15T08:44:55.127Z,117.15
2023-04-15T08:45:55.144Z,119.43
2023-04-15T08:46:55.203Z,118.65
2023-04-15T08:47:55.242Z,120.06
2023-04-15T08:48:55.263Z,117.33
2023-04-15T08:49:55.241Z,121.89
2023-04-15T08:50:55.260Z,119.96
2023-04-15T08:51:55.296Z,117.50
2023-04-15T08:52:55.318Z,118.10
2023-04-15T08:53:55.350Z,118.57
2023-04-15T08:54:55.372Z,119.92
2023-04-15T08:55:55.392Z,120.54
2023-04-15T08:56:55.447Z,120.03
2023-04-15T08:57:55.445Z,118.79
2023-04-15T08:58:55.554Z,118.48
2023-04-15T08:59:55.464Z,118.42
2023-04-15T09:00:55.508Z,117.61
2023-04-15T09:01:55.528Z,117.78
2023-04-15T09:02:55.589Z,120.14
2023-04-15T09:03:55.632Z,120.94
2023-04-15T09:04:55.525Z,119.37
2023-04-15T09:05:55.513Z,122.97
2023-04-15T09:06:55.530Z,121.29
2023-04-15T09:07:55.593Z,119.67
2023-04-15T09:08:55.610Z,119.24
2023-04-15T09:09:55.574Z,118.37
2023-04-15T09:10:55.602Z,118.29
2023-04-15T09:11:55.620Z,119.00
2023-04-15T09:12:55.650Z,117.55
2023-04-15T09:13:55.656Z,117.12
2023-04-15T09:14:55.636Z,119.74
2023-04-15T09:15:55.631Z,119.41
2023-04-15T09:16:55.671Z,122.23
2023-04-15T09:17:55.644Z,121.87
2023-04-15T09:18:55.637Z,120.91
2023-04-15T09:19:55.624Z,120.14
2023-04-15T09:20:55.633Z,117.64
2023-04-15T09:21:58.441Z,120.89
2023-04-15T09:22:55.572Z,118.59
2023-04-15T09:23:55.600Z,122.29
2023-04-15T09:24:55.485Z,122.76
2023-04-15T09:25:55.443Z,121.54
2023-04-15T09:26:55.439Z,120.61
2023-04-15T09:27:55.364Z,120.76
2023-04-15T09:28:55.394Z,117.63
2023-04-15T09:29:55.291Z,122.45
2023-04-15T09:30:55.254Z,120.44
2023-04-15T09:31:55.189Z,121.08
2023-04-15T09:32:55.214Z,121.24
2023-04-15T09:33:55.103Z,119.17
2023-04-15T09:34:55.062Z,121.67
2023-04-15T09:35:55.015Z,123.88
2023-04-15T09:36:55.006Z,121.27
2023-04-15T09:37:54.929Z,121.54
2023-04-15T09:38:54.878Z,120.07
2023-04-15T09:39:54.821Z,119.64
2023-04-15T09:40:54.781Z,121.92
2023-04-15T09:41:54.730Z,121.12
2023-04-15T09:42:54.752Z,119.91
2023-04-15T09:43:54.647Z,121.85
2023-04-15T09:44:54.608Z,122.20
2023-04-15T09:45:54.599Z,118.82
2023-04-15T09:46:54.513Z,122.18
2023-04-15T09:47:55.367Z,121.63
2023-04-15T09:48:54.418Z,122.14
2023-04-15T09:49:54.447Z,122.50
2023-04-15T09:50:54.379Z,122.09
2023-04-15T09:52:04.596Z,121.62
2023-04-15T09:52:55.321Z,121.72
2023-04-15T09:53:54.267Z,121.96
2023-04-15T09:54:54.229Z,121.95
2023-04-15T09:55:54.191Z,123.01
2023-04-15T09:56:54.145Z,120.59
2023-04-15T09:57:54.098Z,122.96
2023-04-15T09:58:54.052Z,121.99
2023-04-15T09:59:54.065Z,121.16
2023-04-15T10:00:53.974Z,122.22
2023-04-15T10:01:54.027Z,122.70
2023-04-15T10:02:53.957Z,123.87
2023-04-15T10:03:53.955Z,121.65
2023-04-15T10:04:53.830Z,122.85
2023-04-15T10:05:53.819Z,122.25
2023-04-15T10:06:53.801Z,120.68
2023-04-15T10:07:53.813Z,119.88
2023-04-15T10:08:53.833Z,121.08
2023-04-15T10:09:53.836Z,119.21
2023-04-15T10:10:53.861Z,120.68
2023-04-15T10:11:53.868Z,120.42
2023-04-15T10:12:53.870Z,119.84
2023-04-15T10:13:53.876Z,120.44
2023-04-15T10:14:53.899Z,121.85
2023-04-15T10:15:53.920Z,117.55
2023-04-15T10:16:53.881Z,120.32
2023-04-15T10:17:53.912Z,119.82
2023-04-15T10:18:53.880Z,118.83
2023-04-15T10:19:53.880Z,119.57
2023-04-15T10:20:53.840Z,119.65
2023-04-15T10:21:53.851Z,118.54
2023-04-15T10:22:53.854Z,118.05
2023-04-15T10:23:53.864Z,119.79
2023-04-15T10:24:53.899Z,117.15
2023-04-15T10:25:53.901Z,118.86
2023-04-15T10:26:53.918Z,119.99
2023-04-15T10:27:53.923Z,119.96
2023-04-15T10:28:53.918Z,120.22
2023-04-15T10:29:53.919Z,117.39
2023-04-15T10:30:53.990Z,120.40
2023-04-15T10:31:53.930Z,119.14
2023-04-15T10:32:53.992Z,120.38
2023-04-15T10:33:53.994Z,118.20
2023-04-15T10:34:54.743Z,122.77
2023-04-15T10:35:54.011Z,119.83
2023-04-15T10:36:54.022Z,120.58
2023-04-15T10:37:54.023Z,121.40
2023-04-15T10:38:54.050Z,123.00
2023-04-15T10:39:54.066Z,122.35
2023-04-15T10:40:54.075Z,120.37
2023-04-15T10:41:54.103Z,121.87
2023-04-15T10:42:54.099Z,119.83
2023-04-15T10:43:54.145Z,118.79
2023-04-15T10:44:54.136Z,119.93
2023-04-15T10:45:54.150Z,120.44
2023-04-15T10:46:54.321Z,122.74
2023-04-15T10:47:54.224Z,120.27
2023-04-15T10:48:54.203Z,120.25
2023-04-15T10:49:54.236Z,125.38
2023-04-15T10:50:54.230Z,121.42
2023-04-15T10:51:54.254Z,120.97
2023-04-15T10:52:54.288Z,121.80
2023-04-15T10:53:54.304Z,119.93
2023-04-15T10:54:54.337Z,122.97
2023-04-15T10:55:54.351Z,121.28
2023-04-15T10:56:54.443Z,119.94
2023-04-15T10:57:54.408Z,123.28
2023-04-15T10:58:54.408Z,119.53
2023-04-15T10:59:54.430Z,123.15
2023-04-15T11:00:54.458Z,119.97
2023-04-15T11:01:54.600Z,118.53
2023-04-15T11:02:54.609Z,119.09
2023-04-15T11:03:54.651Z,117.33
2023-04-15T11:04:54.589Z,120.78
2023-04-15T11:05:54.538Z,121.83
2023-04-15T11:06:54.538Z,120.35
2023-04-15T11:07:54.559Z,120.23
2023-04-15T11:08:54.587Z,121.96
2023-04-15T11:09:54.615Z,120.87
2023-04-15T11:10:54.623Z,120.70
2023-04-15T11:11:54.650Z,120.10
2023-04-15T11:12:54.707Z,120.67
2023-04-15T11:13:54.706Z,123.15
2023-04-15T11:14:54.722Z,121.47
2023-04-15T11:15:54.763Z,121.51
2023-04-15T11:16:54.746Z,119.57
2023-04-15T11:17:54.818Z,119.72
2023-04-15T11:18:54.822Z,119.91
2023-04-15T11:19:54.822Z,118.27
2023-04-15T11:20:54.856Z,121.61
2023-04-15T11:21:54.876Z,117.47
2023-04-15T11:23:07.988Z,120.74
2023-04-15T11:23:55.857Z,120.87
2023-04-15T11:24:54.805Z,121.11
2023-04-15T11:25:54.759Z,119.45
2023-04-15T11:26:54.726Z,121.19
2023-04-15T11:27:54.694Z,119.46
2023-04-15T11:28:54.697Z,121.76
2023-04-15T11:29:54.621Z,118.33
2023-04-15T11:30:54.560Z,118.51
2023-04-15T11:31:54.552Z,119.91
2023-04-15T11:32:54.600Z,120.19
2023-04-15T11:33:54.576Z,119.80
2023-04-15T11:34:54.563Z,116.66
2023-04-15T11:35:54.567Z,117.35
2023-04-15T11:36:54.602Z,120.64
2023-04-15T11:37:54.592Z,118.62
2023-04-15T11:38:54.614Z,117.27
2023-04-15T11:39:54.632Z,119.03
2023-04-15T11:40:54.638Z,117.54
2023-04-15T11:41:54.648Z,118.88
2023-04-15T11:42:54.684Z,120.11
2023-04-15T11:43:54.703Z,118.85
2023-04-15T11:44:54.689Z,118.94
2023-04-15T11:45:54.716Z,118.81
2023-04-15T11:46:54.704Z,118.49
2023-04-15T11:47:54.913Z,116.25
2023-04-15T11:48:54.727Z,116.46
2023-04-15T11:49:54.739Z,116.81
2023-04-15T11:50:54.767Z,116.07
2023-04-15T11:51:54.805Z,117.86
2023-04-15T11:52:54.799Z,115.45
2023-04-15T11:53:54.827Z,118.52
2023-04-15T11:54:54.843Z,116.09
2023-04-15T11:55:54.864Z,115.95
2023-04-15T11:56:54.890Z,117.21
2023-04-15T11:57:54.902Z,114.44
2023-04-15T11:58:54.926Z,119.07
2023-04-15T11:59:54.940Z,117.43
2023-04-15T12:00:54.956Z,114.77
2023-04-15T12:01:55.111Z,118.80
2023-04-15T12:02:55.131Z,115.31
2023-04-15T12:03:55.181Z,118.07
2023-04-15T12:04:55.055Z,114.63
2023-04-15T12:05:55.017Z,114.42
2023-04-15T12:06:55.034Z,115.24
2023-04-15T12:07:55.050Z,113.86
2023-04-15T12:08:55.070Z,114.03
2023-04-15T12:09:55.090Z,115.08
2023-04-15T12:10:55.092Z,117.56
2023-04-15T12:11:55.113Z,112.23
2023-04-15T12:12:55.132Z,115.08
2023-04-15T12:13:55.165Z,116.71
2023-04-15T12:14:55.184Z,112.29
2023-04-15T12:15:55.214Z,113.62
2023-04-15T12:16:55.227Z,114.34
2023-04-15T12:17:55.206Z,115.69
2023-04-15T12:18:55.667Z,115.25
2023-04-15T12:19:55.115Z,113.64
2023-04-15T12:20:55.084Z,115.40
2023-04-15T12:21:55.046Z,112.29
2023-04-15T12:22:55.013Z,115.59
2023-04-15T12:23:54.976Z,113.97
2023-04-15T12:24:55.024Z,114.09
2023-04-15T12:25:54.913Z,115.98
2023-04-15T12:26:54.868Z,115.99
2023-04-15T12:27:54.904Z,114.50
2023-04-15T12:28:54.794Z,115.27
2023-04-15T12:29:54.758Z,112.13
2023-04-15T12:30:54.746Z,112.86